Blacksburg, VA

10:40 PM EDT on March 24, 2017 (GMT -0400)
Virginia Tech

Weather History for KBCB - April, 2013

Change the Weather History Date:

Sunday, April 14, 2013

  Actual Average Record
Temperature  
Mean Temperature 54 °F 50 °F  
Max Temperature 72 °F 63 °F 81 °F (1977)
Min Temperature 36 °F 38 °F 18 °F (1973)
Degree Days  
Heating Degree Days 11 15  
Month to date heating degree days 201 234  
Since 1 July heating degree days 4960 5009  
Cooling Degree Days 0 0  
Month to date cooling degree days 0 0  
Year to date cooling degree days 0 0  
Growing Degree Days 7 (Base 50)    
Moisture  
Dew Point 41 °F    
Average Humidity 58    
Maximum Humidity 85    
Minimum Humidity 31    
Precipitation  
Precipitation 0.02 in 0.12 in 1.52 in (1980)
Month to date precipitation 2.16 1.64  
Year to date precipitation 14.58 11.17  
Snow  
Snow 0.00 in - - ()
Month to date snowfall 5.4  
Since 1 July snowfall 27.9  
Snow Depth 0.00 in    
Sea Level Pressure  
Sea Level Pressure 30.08 in    
Wind  
Wind Speed 4 mph (SW)    
Max Wind Speed 13 mph    
Max Gust Speed 20 mph    
Visibility 10 miles    
Events Rain    
T = Trace of Precipitation, MM = Missing Value Source: NWS Daily Summary

Daily Weather History Graph

Daily Weather History Graph

Search for Another Location

Airport or City:

Trip Planner

Search our weather history database for the weather conditions in past years. The results will help you decide how hot, cold, wet, or windy it might be!

Date:

Astronomy

Apr. 14, 2013 Rise Set
Actual Time 6:48 AM EDT 7:56 PM EDT
Civil Twilight 6:21 AM EDT 8:22 PM EDT
Nautical Twilight 5:49 AM EDT 8:54 PM EDT
Astronomical Twilight 5:16 AM EDT 9:28 PM EDT
Moon 9:27 AM EDT (4/14) No Moon Set
Length of Visible Light 14h 01m
Length of Day
13h 07m
Waxing Crescent, 17% of the Moon is Illuminated
Apr 14
Waxing Crescent
Apr 18
First Quarter
Apr 25
Full
May 2
Last Quarter
May 9
New

Hourly Weather History & Observations

Time (EDT) Temp. Dew Point Humidity Pressure Visibility Wind Dir Wind Speed Gust Speed Precip Events Conditions
12:15 AM 51.8 °F 35.6 °F 54% 30.06 in 10.0 mi West 4.6 mph - N/A   Clear
12:35 AM 51.8 °F 35.6 °F 54% 30.06 in 10.0 mi West 3.5 mph - N/A   Clear
12:55 AM 51.8 °F 35.6 °F 54% 30.06 in 10.0 mi Calm Calm - N/A   Clear
1:15 AM 51.8 °F 35.6 °F 54% 30.06 in 10.0 mi WNW 3.5 mph - N/A   Clear
1:35 AM 50.0 °F 35.6 °F 58% 30.06 in 10.0 mi Calm Calm - N/A   Clear
1:55 AM 48.2 °F 35.6 °F 62% 30.07 in 10.0 mi Calm Calm - N/A   Clear
2:15 AM 46.4 °F 37.4 °F 71% 30.06 in 10.0 mi Calm Calm - N/A   Clear
2:35 AM 46.4 °F 37.4 °F 71% 30.06 in 10.0 mi Calm Calm - N/A   Clear
2:55 AM 46.4 °F 37.4 °F 71% 30.06 in 10.0 mi Calm Calm - N/A   Clear
3:15 AM 44.6 °F 37.4 °F 76% 30.06 in 10.0 mi Calm Calm - N/A   Clear
3:35 AM 44.6 °F 37.4 °F 76% 30.07 in 10.0 mi Calm Calm - N/A   Clear
3:55 AM 44.6 °F 37.4 °F 76% 30.07 in 10.0 mi Calm Calm - N/A   Clear
4:15 AM 42.8 °F 35.6 °F 76% 30.07 in 10.0 mi Calm Calm - N/A   Clear
4:35 AM 44.6 °F 37.4 °F 76% 30.08 in 10.0 mi Calm Calm - N/A   Clear
4:55 AM 42.8 °F 37.4 °F 81% 30.09 in 10.0 mi Calm Calm - N/A   Clear
5:15 AM 42.8 °F 35.6 °F 76% 30.09 in 10.0 mi Calm Calm - N/A   Clear
5:35 AM 42.8 °F 37.4 °F 81% 30.09 in 10.0 mi Calm Calm - N/A   Clear
5:55 AM 41.0 °F 35.6 °F 81% 30.09 in 10.0 mi Calm Calm - N/A   Clear
6:15 AM 42.8 °F 37.4 °F 81% 30.09 in 10.0 mi Calm Calm - N/A   Clear
6:35 AM 41.0 °F 37.4 °F 87% 30.10 in 10.0 mi Calm Calm - N/A   Clear
6:55 AM 39.2 °F 35.6 °F 87% 30.11 in 10.0 mi Calm Calm - N/A   Clear
7:15 AM 39.2 °F 37.4 °F 93% 30.12 in 10.0 mi Calm Calm - N/A   Clear
7:35 AM 42.8 °F 39.2 °F 87% 30.11 in 10.0 mi Calm Calm - N/A   Clear
7:55 AM 46.4 °F 41.0 °F 81% 30.12 in 10.0 mi Calm Calm - N/A   Clear
8:15 AM 50.0 °F 42.8 °F 76% 30.13 in 10.0 mi Calm Calm - N/A   Clear
8:35 AM 53.6 °F 41.0 °F 62% 30.14 in 10.0 mi Calm Calm - N/A   Clear
8:55 AM 57.2 °F 41.0 °F 55% 30.14 in 10.0 mi SW 3.5 mph - N/A   Clear
9:15 AM 59.0 °F 41.0 °F 51% 30.14 in 10.0 mi West 3.5 mph - N/A   Clear
9:35 AM 59.0 °F 41.0 °F 51% 30.14 in 10.0 mi WNW 4.6 mph - N/A   Clear
9:55 AM 60.8 °F 39.2 °F 45% 30.14 in 10.0 mi WSW 4.6 mph - N/A   Clear
10:15 AM 62.6 °F 39.2 °F 42% 30.14 in 10.0 mi West 3.5 mph - N/A   Clear
10:35 AM 64.4 °F 39.2 °F 40% 30.14 in 10.0 mi Calm Calm - N/A   Clear
10:55 AM 64.4 °F 41.0 °F 42% 30.14 in 10.0 mi NW 3.5 mph - N/A   Clear
11:15 AM 66.2 °F 42.8 °F 43% 30.13 in 10.0 mi NW 3.5 mph - N/A   Clear
11:35 AM 66.2 °F 41.0 °F 40% 30.13 in 10.0 mi NW 4.6 mph - N/A   Clear
11:55 AM 68.0 °F 42.8 °F 40% 30.12 in 10.0 mi Calm Calm - N/A   Clear
12:15 PM 69.8 °F 41.0 °F 35% 30.11 in 10.0 mi Calm Calm - N/A   Clear
12:35 PM 71.6 °F 42.8 °F 35% 30.10 in 10.0 mi WNW 4.6 mph - N/A   Clear
12:55 PM 71.6 °F 42.8 °F 35% 30.10 in 10.0 mi SW 6.9 mph - N/A   Clear
1:15 PM 73.4 °F 42.8 °F 33% 30.09 in 10.0 mi SSW 10.4 mph - N/A   Clear
1:35 PM 73.4 °F 42.8 °F 33% 30.09 in 10.0 mi SSW 4.6 mph - N/A   Clear
1:55 PM 73.4 °F 41.0 °F 31% 30.09 in 10.0 mi SSW 12.7 mph 18.4 mph N/A   Clear
2:15 PM 73.4 °F 41.0 °F 31% 30.09 in 10.0 mi South 16.1 mph 23.0 mph N/A   Clear
2:35 PM 73.4 °F 42.8 °F 33% 30.08 in 10.0 mi South 5.8 mph 17.3 mph N/A   Clear
2:55 PM 73.4 °F 42.8 °F 33% 30.07 in 10.0 mi SW 9.2 mph 19.6 mph N/A   Clear
3:15 PM 73.4 °F 42.8 °F 33% 30.07 in 10.0 mi SSW 11.5 mph 20.7 mph N/A   Clear
3:35 PM 73.4 °F 42.8 °F 33% 30.06 in 10.0 mi SSW 8.1 mph 16.1 mph N/A   Clear
3:55 PM 75.2 °F 42.8 °F 31% 30.05 in 10.0 mi South 4.6 mph - N/A   Clear
4:15 PM 75.2 °F 42.8 °F 31% 30.05 in 10.0 mi SSW 5.8 mph - N/A   Clear
4:35 PM 73.4 °F 42.8 °F 33% 30.05 in 10.0 mi SW 9.2 mph 18.4 mph N/A   Clear
4:55 PM 73.4 °F 41.0 °F 31% 30.05 in 10.0 mi South 5.8 mph - N/A   Clear
5:15 PM 73.4 °F 42.8 °F 33% 30.05 in 10.0 mi SSW 8.1 mph - N/A   Clear
5:35 PM 73.4 °F 42.8 °F 33% 30.06 in 10.0 mi SSW 10.4 mph - N/A   Clear
5:55 PM 71.6 °F 42.8 °F 35% 30.06 in 10.0 mi SSW 11.5 mph 17.3 mph N/A   Clear
6:15 PM 71.6 °F 42.8 °F 35% 30.07 in 10.0 mi South 6.9 mph - N/A   Clear
6:35 PM 71.6 °F 42.8 °F 35% 30.07 in 10.0 mi South 4.6 mph - N/A   Clear
6:55 PM 69.8 °F 42.8 °F 38% 30.06 in 10.0 mi South 9.2 mph - N/A   Clear
7:15 PM 69.8 °F 42.8 °F 38% 30.06 in 10.0 mi South 6.9 mph - N/A   Clear
7:35 PM 69.8 °F 42.8 °F 38% 30.06 in 10.0 mi South 5.8 mph - N/A   Clear
7:55 PM 69.8 °F 42.8 °F 38% 30.06 in 10.0 mi South 3.5 mph - N/A   Clear
8:15 PM 68.0 °F 41.0 °F 37% 30.05 in 10.0 mi South 5.8 mph - N/A   Clear
8:35 PM 68.0 °F 41.0 °F 37% 30.05 in 10.0 mi SSW 4.6 mph - N/A   Clear
8:55 PM 66.2 °F 41.0 °F 40% 30.05 in 10.0 mi South 4.6 mph - N/A   Clear
9:15 PM 66.2 °F 42.8 °F 43% 30.06 in 10.0 mi Calm Calm - N/A   Mostly Cloudy
9:35 PM 66.2 °F 42.8 °F 43% 30.06 in 10.0 mi Calm Calm - N/A   Overcast
9:55 PM 66.2 °F 42.8 °F 43% 30.06 in 10.0 mi SSE 3.5 mph - N/A   Overcast
10:15 PM 66.2 °F 42.8 °F 43% 30.07 in 10.0 mi Calm Calm - N/A   Overcast
10:35 PM 66.2 °F 44.6 °F 46% 30.07 in 10.0 mi SSW 3.5 mph - N/A   Overcast
10:55 PM 64.4 °F 44.6 °F 49% 30.07 in 10.0 mi Calm Calm - N/A   Overcast
11:15 PM 64.4 °F 46.4 °F 52% 30.07 in 10.0 mi Calm Calm - N/A   Overcast
11:35 PM 62.6 °F 46.4 °F 55% 30.08 in 10.0 mi SSE 8.1 mph - N/A Rain Light Rain
11:55 PM 64.4 °F 44.6 °F 49% 30.09 in 10.0 mi SSE 5.8 mph - N/A Rain Rain